»·PEaware :: N4306H KTOA-KVNY

N4306H :: KTOA-KVNY

FLIGHT INFORMATION

Flight Status: Arrived
Operator: Privately registered:
United States
More flights under this callsign
Pilot: Lauro R. (32390)
Aircraft: CESSNA 172 SKYHAWK
(C172)
More flights by this aircraft type
Origin: KTOA Zamperini
United States
Destination: KVNY Van Nuys
United States
More flights between these airports :: More routes between these airports
Route: LAX170 LIMBO V64 SMO125 SMO SMO317 CANOG
File this flight plan on PilotEdge
Remarks:
Altitude:
(Current/Filed)
4,000ft
Speed:
(Current/Filed)
110kts
Departed: 02-Feb-21 06:54 PM
Arrived: 02-Feb-21 07:32 PM
Distance/Time
Traveled:
25nm/0:38
Distance/Time
To Go:
Arrived

Flight Plot

Page will automatically refresh every two minutes.

Flight plan parsing failed; only flown route is shown


Map Options




Map Legend


Flown Route
Filed Route
Departure Airport
Arrival Airport
Navaid (VOR, NDB)
Fix

Horizontal Profiles

Position Reports

Time Latitude Longitude Heading Altitude Ground
Speed
02-Feb-21 18:29 33.803347 -118.344052 39 102ft 0kts
02-Feb-21 18:31 33.803347 -118.344052 39 102ft 0kts
02-Feb-21 18:32 33.803347 -118.344052 39 102ft 0kts
02-Feb-21 18:33 33.803347 -118.344052 39 102ft 0kts
02-Feb-21 18:34 33.803347 -118.344052 39 102ft 0kts
02-Feb-21 18:35 33.803347 -118.344052 39 102ft 0kts
02-Feb-21 18:36 33.803347 -118.344052 39 102ft 0kts
02-Feb-21 18:37 33.803347 -118.344052 39 102ft 0kts
02-Feb-21 18:38 33.803347 -118.344052 39 102ft 0kts
02-Feb-21 18:39 33.803347 -118.344052 39 102ft 0kts
02-Feb-21 18:40 33.803347 -118.344052 39 102ft 0kts
02-Feb-21 18:41 33.803347 -118.344052 39 102ft 0kts
02-Feb-21 18:42 33.803347 -118.344052 39 102ft 0kts
02-Feb-21 18:43 33.803347 -118.344052 39 102ft 0kts
02-Feb-21 18:43 33.803347 -118.344052 39 102ft 0kts
02-Feb-21 18:45 33.803347 -118.344052 39 102ft 0kts
02-Feb-21 18:46 33.803351 -118.344048 38 102ft 0kts
02-Feb-21 18:46 33.802757 -118.342570 89 103ft 4kts
02-Feb-21 18:48 33.802647 -118.341456 140 101ft 16kts
02-Feb-21 18:48 33.799460 -118.336680 128 104ft 26kts
02-Feb-21 18:49 33.799099 -118.333280 36 101ft 0kts
02-Feb-21 18:51 33.799099 -118.333280 36 101ft 0kts
02-Feb-21 18:51 33.799099 -118.333280 36 101ft 0kts
02-Feb-21 18:52 33.799102 -118.333277 37 101ft 0kts
02-Feb-21 18:53 33.800328 -118.334002 309 99ft 41kts
02-Feb-21 18:54 33.815927 -118.351693 310 805ft 87kts
02-Feb-21 18:55 33.835278 -118.373134 310 1517ft 99kts
02-Feb-21 18:56 33.855615 -118.395925 310 2215ft 100kts
02-Feb-21 18:57 33.875862 -118.418534 310 2910ft 98kts
02-Feb-21 18:58 33.896089 -118.440990 310 3542ft 106kts
02-Feb-21 18:59 33.920895 -118.462622 350 3916ft 126kts
02-Feb-21 19:00 33.957130 -118.457123 0 4151ft 132kts
02-Feb-21 19:01 33.994029 -118.458788 2 4065ft 133kts
02-Feb-21 19:02 34.024995 -118.467142 327 3992ft 107kts
02-Feb-21 19:03 34.049436 -118.484780 321 3992ft 102kts
02-Feb-21 19:04 34.073380 -118.503660 321 3999ft 103kts
02-Feb-21 19:05 34.097568 -118.523000 321 4005ft 104kts
02-Feb-21 19:06 34.121538 -118.541910 321 3995ft 100kts
02-Feb-21 19:07 34.145191 -118.560460 321 3991ft 106kts
02-Feb-21 19:08 34.170824 -118.581125 321 3990ft 117kts
02-Feb-21 19:09 34.200323 -118.593808 346 4434ft 106kts
02-Feb-21 19:10 34.228703 -118.598602 346 4997ft 113kts
02-Feb-21 19:11 34.262318 -118.604742 347 4995ft 122kts
02-Feb-21 19:12 34.295667 -118.610824 347 4986ft 121kts
02-Feb-21 19:13 34.329106 -118.616997 347 4978ft 121kts
02-Feb-21 19:14 34.362617 -118.623250 347 4970ft 121kts
02-Feb-21 19:15 34.397216 -118.629897 346 4967ft 129kts
02-Feb-21 19:16 34.433028 -118.637039 346 4959ft 130kts
02-Feb-21 19:17 34.468555 -118.644460 346 4951ft 129kts
02-Feb-21 19:18 34.504230 -118.647518 14 4934ft 132kts
02-Feb-21 19:19 34.502743 -118.606828 120 4904ft 143kts
02-Feb-21 19:20 34.483244 -118.565737 120 4892ft 135kts
02-Feb-21 19:21 34.465006 -118.526480 120 4964ft 132kts
02-Feb-21 19:22 34.436319 -118.503620 183 5144ft 123kts
02-Feb-21 19:23 34.400306 -118.504016 182 4861ft 133kts
02-Feb-21 19:24 34.362346 -118.503111 183 4254ft 133kts
02-Feb-21 19:25 34.327345 -118.497932 185 3621ft 125kts
02-Feb-21 19:26 34.293508 -118.497920 179 2600ft 103kts
02-Feb-21 19:27 34.268926 -118.495355 180 2081ft 76kts
02-Feb-21 19:28 34.247977 -118.493512 181 1679ft 73kts
02-Feb-21 19:29 34.227939 -118.492086 177 1145ft 71kts
02-Feb-21 19:30 34.210510 -118.490469 175 805ft 46kts
02-Feb-21 19:31 34.204622 -118.490316 200 805ft 3kts
02-Feb-21 19:32 34.204616 -118.490318 200 805ft 0kts
02-Feb-21 19:33 34.204435 -118.490394 198 805ft 6kts
02-Feb-21 19:34 34.204048 -118.491276 4 805ft 0kts
02-Feb-21 19:35 34.204138 -118.491266 5 805ft 0kts
02-Feb-21 19:36 34.204232 -118.491255 5 805ft 0kts

Navigation Log

Ident Type
Flight plan parsing failed, navigation log unavailable